createdAt,value
2018-03-15T00:02:11.788Z,58.03
2018-03-15T00:04:42.004Z,58.36
2018-03-15T00:07:10.950Z,57.68
2018-03-15T00:09:42.651Z,56.94
2018-03-15T00:12:11.489Z,56.73
2018-03-15T00:14:40.838Z,58.25
2018-03-15T00:17:10.029Z,57.67
2018-03-15T00:19:41.056Z,56.78
2018-03-15T00:22:10.314Z,56.59
2018-03-15T00:24:40.209Z,56.54
2018-03-15T00:27:10.310Z,57.34
2018-03-15T00:29:40.158Z,57.19
2018-03-15T00:32:10.988Z,56.26
2018-03-15T00:34:41.403Z,55.56
2018-03-15T00:37:18.106Z,55.18
2018-03-15T00:39:46.528Z,54.37
2018-03-15T00:42:17.457Z,53.84
2018-03-15T00:47:35.315Z,54.33
2018-03-15T00:50:04.127Z,54.95
2018-03-15T00:52:34.337Z,56.37
2018-03-15T00:55:04.132Z,56.62
2018-03-15T00:57:37.629Z,57.29
2018-03-15T01:00:07.855Z,57.57
2018-03-15T01:02:36.004Z,56.42
2018-03-15T01:05:04.979Z,56.58
2018-03-15T01:07:32.886Z,57.44
2018-03-15T01:10:01.841Z,57.61
2018-03-15T01:12:37.246Z,58.31
2018-03-15T01:15:09.307Z,57.98
2018-03-15T01:17:40.359Z,57.46
2018-03-15T01:20:10.448Z,56.60
2018-03-15T01:22:38.753Z,57.27
2018-03-15T01:25:09.428Z,58.82
2018-03-15T01:27:39.726Z,60.10
2018-03-15T01:30:14.038Z,58.84
2018-03-15T01:32:46.688Z,57.83
2018-03-15T01:35:17.289Z,57.61
2018-03-15T01:37:46.747Z,57.40
2018-03-15T01:40:18.542Z,56.99
2018-03-15T01:45:55.577Z,56.12
2018-03-15T01:48:28.180Z,56.84
2018-03-15T01:50:58.868Z,58.44
2018-03-15T01:53:27.910Z,59.38
2018-03-15T01:55:58.483Z,58.42
2018-03-15T01:58:34.783Z,57.13
2018-03-15T02:01:03.088Z,56.64
2018-03-15T02:03:32.014Z,56.46
2018-03-15T02:06:01.247Z,56.80
2018-03-15T02:08:29.806Z,57.02
2018-03-15T02:10:59.038Z,57.33
2018-03-15T02:13:31.708Z,57.26
2018-03-15T02:16:04.314Z,56.93
2018-03-15T02:18:33.962Z,56.28
2018-03-15T02:21:03.598Z,56.11
2018-03-15T02:23:31.774Z,55.92
2018-03-15T02:26:01.933Z,56.75
2018-03-15T02:28:35.781Z,56.44
2018-03-15T02:31:04.568Z,56.08
2018-03-15T02:33:33.001Z,56.24
2018-03-15T02:36:02.108Z,56.58
2018-03-15T02:38:32.819Z,57.13
2018-03-15T02:41:04.156Z,56.37
2018-03-15T02:43:32.643Z,56.96
2018-03-15T02:46:09.469Z,56.38
2018-03-15T02:48:39.541Z,55.94
2018-03-15T02:51:10.655Z,55.68
2018-03-15T02:53:42.790Z,55.57
2018-03-15T02:56:13.500Z,55.61
2018-03-15T02:58:44.763Z,56.02
2018-03-15T03:01:12.487Z,55.41
2018-03-15T03:03:40.647Z,56.06
2018-03-15T03:06:09.384Z,55.84
2018-03-15T03:08:39.952Z,55.67
2018-03-15T03:11:11.519Z,55.32
2018-03-15T03:13:39.609Z,54.94
2018-03-15T03:16:07.672Z,54.84
2018-03-15T03:18:36.873Z,54.84
2018-03-15T03:21:06.094Z,55.21
2018-03-15T03:23:34.332Z,55.20
2018-03-15T03:26:04.889Z,55.76
2018-03-15T03:28:33.254Z,55.65
2018-03-15T03:31:01.192Z,55.55
2018-03-15T03:33:30.531Z,55.91
2018-03-15T03:36:00.370Z,56.18
2018-03-15T03:38:30.511Z,57.32
2018-03-15T03:41:00.436Z,57.19
2018-03-15T03:43:30.413Z,56.56
2018-03-15T03:46:01.398Z,57.60
2018-03-15T03:48:33.669Z,57.39
2018-03-15T03:51:02.862Z,56.99
2018-03-15T03:53:33.222Z,57.40
2018-03-15T03:56:02.301Z,57.50
2018-03-15T03:58:31.729Z,57.15
2018-03-15T04:01:06.106Z,56.58
2018-03-15T04:03:34.562Z,57.41
2018-03-15T04:06:07.629Z,58.25
2018-03-15T04:08:40.563Z,57.74
2018-03-15T04:11:11.025Z,57.73
2018-03-15T04:13:45.145Z,58.84
2018-03-15T04:16:19.082Z,60.05
2018-03-15T04:18:47.302Z,60.03
2018-03-15T04:21:22.336Z,59.64
2018-03-15T04:23:51.804Z,58.90
2018-03-15T04:26:21.619Z,59.56
2018-03-15T04:28:53.785Z,60.61
2018-03-15T04:31:23.301Z,60.71
2018-03-15T04:33:52.475Z,61.03
2018-03-15T04:36:21.768Z,61.73
2018-03-15T04:38:53.605Z,62.21
2018-03-15T04:41:22.280Z,62.84
2018-03-15T04:43:51.495Z,62.84
2018-03-15T04:46:22.758Z,62.84
2018-03-15T04:48:55.029Z,62.89
2018-03-15T04:51:25.134Z,62.63
2018-03-15T04:53:53.405Z,61.68
2018-03-15T04:56:22.530Z,60.65
2018-03-15T04:58:51.493Z,60.99
2018-03-15T05:01:25.180Z,61.65
2018-03-15T05:03:55.554Z,62.25
2018-03-15T05:06:28.260Z,62.49
2018-03-15T05:08:56.601Z,62.06
2018-03-15T05:11:27.654Z,61.82
2018-03-15T05:13:57.939Z,62.09
2018-03-15T05:16:26.845Z,63.40
2018-03-15T05:18:55.578Z,63.90
2018-03-15T05:21:27.874Z,63.19
2018-03-15T05:23:58.378Z,62.89
2018-03-15T05:26:28.948Z,62.82
2018-03-15T05:29:00.788Z,63.23
2018-03-15T05:31:32.068Z,63.97
2018-03-15T05:34:06.107Z,64.05
2018-03-15T05:36:35.494Z,63.40
2018-03-15T05:39:07.979Z,63.84
2018-03-15T05:41:37.606Z,64.33
2018-03-15T05:44:05.839Z,64.19
2018-03-15T05:46:36.223Z,63.14
2018-03-15T05:49:04.924Z,63.41
2018-03-15T05:51:35.868Z,63.67
2018-03-15T05:54:07.227Z,63.68
2018-03-15T05:57:06.179Z,62.55
2018-03-15T05:59:36.335Z,62.35
2018-03-15T06:02:04.555Z,62.81
2018-03-15T06:04:33.429Z,63.95
2018-03-15T06:07:01.943Z,64.73
2018-03-15T06:09:31.451Z,65.55
2018-03-15T06:12:00.377Z,64.62
2018-03-15T06:14:27.584Z,63.88
2018-03-15T06:16:55.444Z,63.62
2018-03-15T06:19:24.183Z,62.52
2018-03-15T06:21:57.864Z,61.39
2018-03-15T06:24:28.852Z,62.32
2018-03-15T06:26:57.261Z,62.76
2018-03-15T06:29:26.525Z,61.98
2018-03-15T06:31:57.879Z,61.85
2018-03-15T06:34:26.411Z,62.43
2018-03-15T06:36:55.051Z,63.17
2018-03-15T06:39:25.817Z,63.10
2018-03-15T06:41:54.905Z,62.26
2018-03-15T06:44:25.585Z,62.32
2018-03-15T06:46:54.173Z,61.28
2018-03-15T06:49:28.578Z,61.53
2018-03-15T06:52:07.365Z,60.94
2018-03-15T06:54:49.813Z,61.06
2018-03-15T06:57:20.654Z,60.93
2018-03-15T06:59:51.351Z,60.85
2018-03-15T07:02:22.443Z,59.83
2018-03-15T07:04:54.684Z,59.27
2018-03-15T07:07:26.066Z,57.93
2018-03-15T07:09:55.298Z,57.01
2018-03-15T07:12:25.261Z,57.08
2018-03-15T07:14:58.988Z,57.73
2018-03-15T07:20:34.447Z,59.41
2018-03-15T07:23:04.517Z,60.36
2018-03-15T07:25:42.320Z,59.99
2018-03-15T07:28:12.055Z,59.00
2018-03-15T07:30:42.443Z,58.63
2018-03-15T07:33:11.640Z,58.22
2018-03-15T07:35:40.128Z,57.84
2018-03-15T07:38:12.434Z,57.58
2018-03-15T07:40:41.674Z,58.31
2018-03-15T07:43:14.260Z,59.75
2018-03-15T07:45:45.801Z,60.61
2018-03-15T07:48:15.771Z,60.37
2018-03-15T07:50:45.990Z,62.05
2018-03-15T07:53:16.405Z,63.65
2018-03-15T07:55:44.767Z,64.34
2018-03-15T07:58:16.198Z,63.60
2018-03-15T08:00:47.731Z,63.47
2018-03-15T08:03:17.464Z,64.05
2018-03-15T08:05:46.325Z,64.77
2018-03-15T08:08:14.365Z,65.29
2018-03-15T08:10:44.295Z,65.63
2018-03-15T08:13:12.332Z,65.37
2018-03-15T08:15:41.297Z,63.98
2018-03-15T08:18:11.515Z,61.53
2018-03-15T08:20:41.759Z,61.23
2018-03-15T08:23:10.902Z,61.49
2018-03-15T08:25:41.205Z,60.82
2018-03-15T08:28:13.181Z,60.28
2018-03-15T08:30:42.143Z,60.11
2018-03-15T08:33:15.103Z,59.23
2018-03-15T08:35:43.988Z,58.58
2018-03-15T08:38:14.460Z,57.22
2018-03-15T08:40:45.501Z,56.85
2018-03-15T08:43:19.009Z,56.14
2018-03-15T08:45:48.556Z,55.82
2018-03-15T08:48:16.279Z,55.57
2018-03-15T08:50:47.380Z,55.13
2018-03-15T08:53:18.013Z,55.67
2018-03-15T08:55:47.619Z,56.00
2018-03-15T08:58:16.392Z,56.57
2018-03-15T09:00:47.563Z,56.88
2018-03-15T09:03:19.383Z,56.86
2018-03-15T09:05:49.147Z,55.99
2018-03-15T09:08:19.556Z,55.91
2018-03-15T09:10:50.379Z,55.46
2018-03-15T09:13:21.357Z,54.36
2018-03-15T09:15:50.894Z,54.34
2018-03-15T09:18:21.651Z,54.68
2018-03-15T09:20:51.252Z,54.17
2018-03-15T09:23:19.523Z,54.62
2018-03-15T09:25:47.513Z,54.00
2018-03-15T09:28:16.387Z,54.21
2018-03-15T09:30:46.289Z,54.25
2018-03-15T09:33:16.281Z,54.06
2018-03-15T09:35:47.314Z,53.63
2018-03-15T09:38:17.094Z,54.04
2018-03-15T09:40:48.252Z,54.08
2018-03-15T09:43:17.202Z,54.73
2018-03-15T09:45:45.729Z,53.78
2018-03-15T09:48:16.008Z,53.89
2018-03-15T09:50:45.959Z,52.61
2018-03-15T09:53:16.883Z,52.68
2018-03-15T09:55:45.589Z,53.39
2018-03-15T09:58:14.754Z,52.90
2018-03-15T10:00:52.848Z,52.39
2018-03-15T10:03:22.022Z,51.71
2018-03-15T10:05:50.361Z,51.09
2018-03-15T10:08:21.000Z,51.77
2018-03-15T10:10:51.737Z,50.32
2018-03-15T10:13:22.304Z,51.65
2018-03-15T10:15:50.532Z,53.11
2018-03-15T10:18:24.731Z,53.49
2018-03-15T10:20:54.674Z,53.43
2018-03-15T10:23:23.904Z,54.51
2018-03-15T10:25:53.133Z,52.98
2018-03-15T10:28:22.922Z,51.46
2018-03-15T10:30:51.463Z,50.29
2018-03-15T10:33:25.663Z,50.99
2018-03-15T10:35:54.993Z,51.59
2018-03-15T10:38:24.344Z,49.93
2018-03-15T10:40:56.515Z,49.59
2018-03-15T10:43:29.782Z,49.32
2018-03-15T10:46:04.742Z,51.35
2018-03-15T10:48:36.644Z,52.36
2018-03-15T10:51:05.726Z,53.12
2018-03-15T10:53:34.387Z,52.27
2018-03-15T10:56:04.538Z,49.87
2018-03-15T10:58:36.040Z,52.38
2018-03-15T11:01:06.210Z,53.31
2018-03-15T11:03:41.481Z,52.85
2018-03-15T11:06:11.593Z,50.20
2018-03-15T11:08:48.207Z,48.38
2018-03-15T11:11:17.105Z,49.35
2018-03-15T11:13:46.333Z,50.36
2018-03-15T11:16:15.072Z,48.95
2018-03-15T11:18:47.384Z,48.85
2018-03-15T11:21:20.266Z,48.92
2018-03-15T11:23:52.133Z,48.73
2018-03-15T11:26:20.734Z,50.98
2018-03-15T11:28:50.511Z,51.18
2018-03-15T11:31:20.288Z,50.43
2018-03-15T11:33:49.173Z,48.16
2018-03-15T11:36:16.653Z,48.36
2018-03-15T11:38:47.004Z,48.29
2018-03-15T11:41:17.956Z,51.31
2018-03-15T11:43:47.473Z,51.19
2018-03-15T11:46:16.479Z,49.80
2018-03-15T11:48:46.780Z,48.67
2018-03-15T11:51:17.440Z,47.63
2018-03-15T11:53:46.258Z,46.83
2018-03-15T11:56:17.792Z,47.46
2018-03-15T11:58:48.666Z,48.62
2018-03-15T12:01:20.809Z,49.06
2018-03-15T12:03:50.181Z,48.26
2018-03-15T12:06:18.278Z,47.86
2018-03-15T12:08:47.759Z,47.52
2018-03-15T12:11:18.602Z,47.33
2018-03-15T12:13:52.081Z,47.26
2018-03-15T12:16:20.994Z,47.72
2018-03-15T12:18:48.988Z,46.80
2018-03-15T12:21:19.512Z,47.07
2018-03-15T12:23:49.010Z,47.22
2018-03-15T12:26:18.388Z,48.30
2018-03-15T12:28:52.042Z,47.10
2018-03-15T12:31:19.718Z,47.31
2018-03-15T12:33:49.039Z,48.61
2018-03-15T12:36:21.978Z,48.90
2018-03-15T12:38:54.201Z,49.93
2018-03-15T12:41:22.805Z,49.90
2018-03-15T12:43:52.586Z,47.82
2018-03-15T12:46:21.200Z,47.57
2018-03-15T12:48:53.462Z,47.35
2018-03-15T12:51:28.441Z,46.54
2018-03-15T12:53:56.987Z,46.28
2018-03-15T12:56:24.161Z,46.29
2018-03-15T12:58:51.517Z,48.11
2018-03-15T13:01:21.733Z,47.83
2018-03-15T13:03:56.036Z,49.28
2018-03-15T13:06:24.059Z,48.92
2018-03-15T13:08:51.855Z,47.73
2018-03-15T13:11:20.428Z,46.67
2018-03-15T13:13:50.103Z,46.24
2018-03-15T13:16:23.376Z,45.12
2018-03-15T13:18:57.976Z,45.06
2018-03-15T13:21:25.927Z,44.82
2018-03-15T13:23:57.972Z,47.94
2018-03-15T13:26:27.135Z,46.82
2018-03-15T13:28:54.868Z,46.26
2018-03-15T13:31:23.891Z,45.30
2018-03-15T13:33:52.970Z,45.83
2018-03-15T13:36:26.260Z,45.02
2018-03-15T13:38:55.435Z,45.90
2018-03-15T13:41:26.099Z,45.88
2018-03-15T13:43:58.462Z,44.84
2018-03-15T13:46:26.325Z,47.22
2018-03-15T13:48:52.795Z,46.99
2018-03-15T13:51:19.277Z,45.39
2018-03-15T13:53:45.820Z,46.73
2018-03-15T13:56:12.237Z,46.59
2018-03-15T13:58:38.684Z,45.17
2018-03-15T14:01:05.056Z,46.62
2018-03-15T14:03:31.518Z,47.24
2018-03-15T14:05:58.005Z,45.28
2018-03-15T14:08:31.449Z,44.68
2018-03-15T14:10:57.891Z,44.61
2018-03-15T14:13:24.369Z,45.20
2018-03-15T14:15:50.871Z,46.02
2018-03-15T14:18:17.414Z,45.22
2018-03-15T14:20:43.855Z,44.99
2018-03-15T14:23:10.444Z,44.92
2018-03-15T14:25:37.706Z,47.11
2018-03-15T14:28:04.178Z,48.27
2018-03-15T14:30:30.681Z,48.48
2018-03-15T14:32:57.818Z,49.95
2018-03-15T14:35:24.398Z,48.51
2018-03-15T14:37:50.832Z,46.63
2018-03-15T14:40:17.259Z,46.95
2018-03-15T14:42:44.447Z,47.21
2018-03-15T14:45:10.840Z,46.21
2018-03-15T14:47:37.414Z,45.65
2018-03-15T14:50:04.005Z,45.46
2018-03-15T14:52:30.364Z,45.53
2018-03-15T14:54:57.052Z,46.46
2018-03-15T14:57:23.479Z,46.22
2018-03-15T14:59:49.997Z,46.83
2018-03-15T15:02:16.548Z,46.63
2018-03-15T15:04:42.939Z,45.74
2018-03-15T15:07:09.442Z,46.60
2018-03-15T15:09:36.723Z,47.10
2018-03-15T15:12:04.783Z,47.62
2018-03-15T15:14:38.237Z,47.58
2018-03-15T15:17:06.036Z,47.14
2018-03-15T15:19:36.279Z,47.37
2018-03-15T15:22:05.517Z,47.45
2018-03-15T15:24:33.770Z,47.92
2018-03-15T15:27:04.043Z,48.24
2018-03-15T15:29:33.415Z,48.18
2018-03-15T15:32:02.968Z,47.84
2018-03-15T15:34:33.452Z,47.67
2018-03-15T15:37:04.716Z,47.26
2018-03-15T15:39:31.985Z,46.99
2018-03-15T15:42:01.155Z,46.37
2018-03-15T15:44:29.127Z,46.96
2018-03-15T15:46:59.245Z,47.46
2018-03-15T15:49:31.332Z,48.89
2018-03-15T15:52:00.618Z,48.39
2018-03-15T15:54:32.116Z,49.23
2018-03-15T15:57:00.175Z,49.37
2018-03-15T15:59:30.351Z,48.87
2018-03-15T16:02:02.746Z,48.95
2018-03-15T16:04:30.767Z,48.95
2018-03-15T16:07:00.122Z,48.66
2018-03-15T16:09:27.903Z,48.58
2018-03-15T16:11:59.035Z,47.86
2018-03-15T16:14:26.580Z,47.54
2018-03-15T16:16:54.659Z,47.75
2018-03-15T16:19:22.275Z,47.26
2018-03-15T16:21:50.354Z,47.26
2018-03-15T16:24:19.114Z,47.72
2018-03-15T16:26:51.276Z,47.86
2018-03-15T16:29:20.410Z,48.02
2018-03-15T16:31:49.469Z,48.01
2018-03-15T16:34:16.615Z,48.27
2018-03-15T16:36:46.699Z,47.53
2018-03-15T16:39:13.446Z,47.74
2018-03-15T16:41:39.881Z,48.50
2018-03-15T16:44:06.469Z,48.55
2018-03-15T16:46:33.015Z,47.71
2018-03-15T16:48:59.380Z,47.75
2018-03-15T16:51:27.068Z,48.55
2018-03-15T16:53:54.257Z,48.54
2018-03-15T16:56:22.549Z,48.43
2018-03-15T16:58:52.735Z,48.48
2018-03-15T17:01:21.287Z,48.70
2018-03-15T17:03:50.910Z,48.60
2018-03-15T17:06:20.721Z,48.68
2018-03-15T17:08:51.066Z,48.97
2018-03-15T17:11:20.759Z,49.15
2018-03-15T17:13:53.075Z,49.00
2018-03-15T17:16:20.256Z,48.76
2018-03-15T17:18:46.781Z,48.71
2018-03-15T17:21:13.212Z,49.13
2018-03-15T17:23:40.360Z,49.11
2018-03-15T17:26:07.106Z,49.58
2018-03-15T17:28:33.549Z,49.92
2018-03-15T17:30:59.963Z,49.96
2018-03-15T17:33:26.624Z,50.28
2018-03-15T17:35:54.992Z,50.42
2018-03-15T17:38:21.877Z,50.52
2018-03-15T17:40:49.526Z,50.60
2018-03-15T17:43:17.040Z,50.29
2018-03-15T17:45:44.453Z,50.35
2018-03-15T17:48:10.905Z,51.05
2018-03-15T17:50:37.348Z,51.15
2018-03-15T17:53:04.628Z,51.41
2018-03-15T17:55:31.144Z,51.24
2018-03-15T17:57:57.605Z,50.96
2018-03-15T18:00:25.490Z,51.61
2018-03-15T18:02:51.918Z,52.42
2018-03-15T18:05:19.852Z,52.47
2018-03-15T18:07:47.021Z,52.37
2018-03-15T18:10:13.584Z,51.75
2018-03-15T18:12:39.983Z,51.10
2018-03-15T18:15:06.431Z,51.36
2018-03-15T18:17:32.875Z,52.20
2018-03-15T18:19:59.365Z,52.17
2018-03-15T18:22:26.812Z,52.20
2018-03-15T18:24:53.686Z,52.11
2018-03-15T18:27:20.179Z,52.29
2018-03-15T18:29:46.615Z,52.57
2018-03-15T18:32:13.033Z,51.92
2018-03-15T18:34:39.440Z,52.49
2018-03-15T18:37:07.843Z,54.44
2018-03-15T18:39:37.913Z,56.98
2018-03-15T18:42:06.150Z,56.75
2018-03-15T18:44:32.560Z,55.79
2018-03-15T18:46:59.468Z,55.91
2018-03-15T18:49:26.075Z,54.90
2018-03-15T18:51:53.907Z,55.77
2018-03-15T18:54:20.617Z,57.30
2018-03-15T19:01:18.736Z,58.76
2018-03-15T19:03:45.831Z,59.18
2018-03-15T19:06:12.220Z,59.29
2018-03-15T19:08:38.838Z,58.96
2018-03-15T19:11:05.979Z,58.69
2018-03-15T19:13:32.368Z,58.88
2018-03-15T19:15:58.843Z,59.36
2018-03-15T19:18:25.182Z,61.61
2018-03-15T19:20:52.281Z,60.75
2018-03-15T19:23:32.361Z,60.23
2018-03-15T19:26:00.442Z,60.21
2018-03-15T19:28:29.577Z,60.63
2018-03-15T19:30:59.455Z,61.14
2018-03-15T19:33:26.924Z,60.56
2018-03-15T19:35:53.332Z,60.51
2018-03-15T19:38:19.714Z,60.28
2018-03-15T19:40:46.216Z,60.33
2018-03-15T19:43:13.357Z,59.35
2018-03-15T19:45:40.031Z,59.29
2018-03-15T19:48:06.393Z,59.89
2018-03-15T19:50:33.116Z,59.94
2018-03-15T19:52:59.639Z,60.25
2018-03-15T19:55:26.023Z,59.68
2018-03-15T19:57:52.450Z,59.94
2018-03-15T20:00:18.932Z,60.18
2018-03-15T20:02:46.057Z,60.40
2018-03-15T20:05:12.493Z,60.37
2018-03-15T20:07:39.006Z,59.87
2018-03-15T20:10:05.417Z,59.49
2018-03-15T20:12:31.802Z,60.01
2018-03-15T20:14:58.411Z,60.85
2018-03-15T20:17:24.785Z,61.19
2018-03-15T20:19:51.226Z,61.47
2018-03-15T20:22:23.738Z,62.10
2018-03-15T20:24:50.135Z,63.05
2018-03-15T20:27:23.483Z,62.60
2018-03-15T20:29:49.887Z,62.68
2018-03-15T20:35:16.934Z,61.91
2018-03-15T20:37:46.258Z,61.41
2018-03-15T20:40:21.629Z,61.36
2018-03-15T20:42:50.935Z,60.81
2018-03-15T20:45:26.033Z,59.74
2018-03-15T20:48:01.936Z,59.88
2018-03-15T20:50:33.073Z,58.31
2018-03-15T20:53:02.534Z,58.23
2018-03-15T20:55:31.985Z,59.21
2018-03-15T20:58:01.427Z,59.68
2018-03-15T21:00:30.747Z,60.64
2018-03-15T21:03:01.382Z,60.83
2018-03-15T21:05:30.729Z,60.83
2018-03-15T21:08:01.322Z,60.34
2018-03-15T21:10:30.690Z,59.55
2018-03-15T21:13:00.688Z,59.74
2018-03-15T21:15:31.532Z,59.49
2018-03-15T21:18:00.892Z,60.11
2018-03-15T21:20:32.006Z,59.90
2018-03-15T21:23:01.440Z,59.89
2018-03-15T21:25:30.798Z,59.75
2018-03-15T21:28:01.932Z,59.53
2018-03-15T21:30:31.226Z,59.47
2018-03-15T21:33:01.848Z,59.69
2018-03-15T21:35:31.163Z,59.94
2018-03-15T21:38:03.639Z,59.51
2018-03-15T21:40:33.039Z,59.12
2018-03-15T21:43:02.488Z,59.59
2018-03-15T21:45:32.037Z,58.44
2018-03-15T21:48:01.372Z,58.92
2018-03-15T21:50:31.226Z,59.21
2018-03-15T21:53:01.420Z,59.27
2018-03-15T21:55:31.751Z,59.49
2018-03-15T21:58:01.912Z,59.39
2018-03-15T22:00:32.833Z,59.14
2018-03-15T22:03:02.461Z,58.73
2018-03-15T22:05:32.147Z,58.81
2018-03-15T22:08:02.228Z,58.80
2018-03-15T22:10:32.948Z,58.75
2018-03-15T22:13:02.777Z,58.77
2018-03-15T22:15:32.429Z,58.04
2018-03-15T22:18:02.489Z,57.27
2018-03-15T22:20:32.611Z,57.53
2018-03-15T22:23:03.065Z,57.81
2018-03-15T22:25:33.054Z,58.14
2018-03-15T22:28:04.304Z,58.64
2018-03-15T22:30:34.439Z,58.27
2018-03-15T22:33:03.959Z,58.53
2018-03-15T22:35:33.303Z,58.51
2018-03-15T22:38:04.139Z,58.43
2018-03-15T22:40:34.213Z,58.64
2018-03-15T22:43:04.788Z,58.33
2018-03-15T22:45:35.253Z,58.52
2018-03-15T22:48:06.283Z,58.32
2018-03-15T22:50:36.527Z,57.16
2018-03-15T22:53:05.844Z,57.70
2018-03-15T22:55:35.209Z,57.63
2018-03-15T22:58:05.101Z,57.65
2018-03-15T23:00:35.256Z,57.45
2018-03-15T23:03:05.959Z,57.59
2018-03-15T23:05:35.379Z,57.38
2018-03-15T23:08:06.108Z,57.13
2018-03-15T23:10:35.664Z,57.54
2018-03-15T23:13:05.867Z,57.57
2018-03-15T23:15:36.719Z,57.68
2018-03-15T23:18:07.082Z,57.73
2018-03-15T23:20:37.977Z,57.28
2018-03-15T23:23:07.720Z,57.13
2018-03-15T23:25:39.928Z,57.13
2018-03-15T23:28:11.067Z,57.27
2018-03-15T23:30:41.009Z,57.45
2018-03-15T23:33:11.883Z,57.17
2018-03-15T23:35:41.828Z,56.97
2018-03-15T23:38:14.163Z,57.43
2018-03-15T23:40:45.853Z,57.23
2018-03-15T23:43:17.934Z,56.85
2018-03-15T23:45:49.930Z,58.02
2018-03-15T23:48:20.631Z,58.39
2018-03-15T23:50:55.366Z,58.24
2018-03-15T23:53:26.220Z,57.92
2018-03-15T23:55:57.409Z,57.87
2018-03-15T23:58:26.716Z,57.88
